Time,TemperatureF,DewpointF,PressureIn,WindDirection,WindDirectionDegrees,WindSpeedMPH,WindSpeedGustMPH,Humidity,HourlyPrecipIn,Conditions,Clouds,dailyrainin,SoftwareType,DateUTC
2013-05-16 00:02:00,54.0,52.0,-100.00,East,80,1.0,3.0,91,-99.99,,,-99.99,,2013-05-16 04:02:00,
2013-05-16 00:12:00,54.0,52.0,-100.00,NW,310,2.0,3.0,92,-99.99,,,-99.99,,2013-05-16 04:12:00,
2013-05-16 00:23:00,54.0,52.0,-100.00,WNW,295,2.0,5.0,92,-99.99,,,-99.99,,2013-05-16 04:23:00,
2013-05-16 00:33:00,53.0,51.0,-100.00,NNW,330,2.0,2.0,92,-99.99,,,-99.99,,2013-05-16 04:33:00,
2013-05-16 00:42:00,54.0,52.0,-100.00,NW,325,2.0,5.0,93,-99.99,,,-99.99,,2013-05-16 04:42:00,
2013-05-16 00:53:00,54.0,52.0,-100.00,NW,320,2.0,3.0,93,-99.99,,,-99.99,,2013-05-16 04:53:00,
2013-05-16 01:03:00,54.0,52.0,-100.00,NW,320,2.0,5.0,94,-99.99,,,-99.99,,2013-05-16 05:03:00,
2013-05-16 01:12:00,53.0,51.0,-100.00,SW,220,0.0,5.0,93,-99.99,,,-99.99,,2013-05-16 05:12:00,
2013-05-16 01:22:00,52.0,50.0,-100.00,WSW,240,1.0,1.0,94,-99.99,,,-99.99,,2013-05-16 05:22:00,
2013-05-16 01:32:00,52.0,50.0,-100.00,ENE,65,0.0,2.0,95,-99.99,,,-99.99,,2013-05-16 05:32:00,
2013-05-16 01:42:00,51.0,50.0,-100.00,WSW,245,0.0,1.0,95,-99.99,,,-99.99,,2013-05-16 05:42:00,
2013-05-16 01:52:00,51.0,50.0,-100.00,NW,310,2.0,3.0,96,-99.99,,,-99.99,,2013-05-16 05:52:00,
2013-05-16 02:02:00,51.0,50.0,-100.00,NW,305,2.0,3.0,97,-99.99,,,-99.99,,2013-05-16 06:02:00,
2013-05-16 02:12:00,51.0,50.0,-100.00,SSW,210,0.0,2.0,96,-99.99,,,-99.99,,2013-05-16 06:12:00,
2013-05-16 02:23:00,50.0,49.0,-100.00,SW,215,0.0,1.0,97,-99.99,,,-99.99,,2013-05-16 06:23:00,
2013-05-16 02:33:00,50.0,49.0,-100.00,WSW,240,1.0,2.0,97,-99.99,,,-99.99,,2013-05-16 06:33:00,
2013-05-16 02:43:00,50.0,49.0,-100.00,West,260,1.0,2.0,97,-99.99,,,-99.99,,2013-05-16 06:43:00,
2013-05-16 02:53:00,49.0,49.0,-100.00,NE,55,0.0,2.0,97,-99.99,,,-99.99,,2013-05-16 06:53:00,
2013-05-16 03:02:00,49.0,48.0,-100.00,NNW,330,1.0,3.0,97,-99.99,,,-99.99,,2013-05-16 07:02:00,
2013-05-16 03:12:00,49.0,48.0,-100.00,NNE,25,1.0,2.0,97,-99.99,,,-99.99,,2013-05-16 07:12:00,
2013-05-16 03:24:00,48.0,47.0,-100.00,North,10,0.0,2.0,97,-99.99,,,-99.99,,2013-05-16 07:24:00,
2013-05-16 03:34:00,48.0,47.0,-100.00,East,95,1.0,1.0,97,-99.99,,,-99.99,,2013-05-16 07:34:00,
2013-05-16 03:44:00,48.0,47.0,-100.00,NE,40,0.0,2.0,98,-99.99,,,-99.99,,2013-05-16 07:44:00,
2013-05-16 03:54:00,48.0,47.0,-100.00,NW,325,1.0,2.0,98,-99.99,,,-99.99,,2013-05-16 07:54:00,
2013-05-16 04:03:00,48.0,47.0,-100.00,South,190,0.0,1.0,98,-99.99,,,-99.99,,2013-05-16 08:03:00,
2013-05-16 04:13:00,48.0,47.0,-100.00,South,190,0.0,1.0,98,-99.99,,,-99.99,,2013-05-16 08:13:00,
2013-05-16 04:24:00,48.0,48.0,-100.00,NNW,335,1.0,2.0,98,-99.99,,,-99.99,,2013-05-16 08:24:00,
2013-05-16 04:35:00,49.0,48.0,-100.00,NW,325,1.0,3.0,99,-99.99,,,-99.99,,2013-05-16 08:35:00,
2013-05-16 04:45:00,49.0,49.0,-100.00,West,280,2.0,3.0,99,-99.99,,,-99.99,,2013-05-16 08:45:00,
2013-05-16 04:54:00,49.0,48.0,-100.00,NW,315,1.0,3.0,98,-99.99,,,-99.99,,2013-05-16 08:54:00,
2013-05-16 05:04:00,49.0,49.0,-100.00,NW,315,2.0,3.0,99,-99.99,,,-99.99,,2013-05-16 09:04:00,
2013-05-16 05:14:00,49.0,49.0,-100.00,NW,320,2.0,5.0,99,-99.99,,,-99.99,,2013-05-16 09:14:00,
2013-05-16 05:24:00,49.0,49.0,-100.00,NNE,20,1.0,5.0,99,-99.99,,,-99.99,,2013-05-16 09:24:00,
2013-05-16 05:35:00,48.0,48.0,-100.00,West,265,1.0,2.0,98,-99.99,,,-99.99,,2013-05-16 09:35:00,
2013-05-16 05:45:00,49.0,48.0,-100.00,NW,320,2.0,3.0,98,-99.99,,,-99.99,,2013-05-16 09:45:00,
2013-05-16 05:55:00,49.0,49.0,-100.00,West,270,1.0,6.0,99,-99.99,,,-99.99,,2013-05-16 09:55:00,
2013-05-16 06:05:00,50.0,49.0,-100.00,West,275,1.0,6.0,97,-99.99,,,-99.99,,2013-05-16 10:05:00,
2013-05-16 06:15:00,51.0,49.0,-100.00,NE,50,2.0,6.0,94,-99.99,,,-99.99,,2013-05-16 10:15:00,
2013-05-16 06:24:00,53.0,48.0,-100.00,ENE,65,2.0,9.0,84,-99.99,,,-99.99,,2013-05-16 10:24:00,
2013-05-16 06:36:00,54.0,47.0,-100.00,NNE,20,2.0,7.0,79,-99.99,,,-99.99,,2013-05-16 10:36:00,
2013-05-16 06:45:00,54.0,46.0,-100.00,NW,305,1.0,6.0,74,-99.99,,,-99.99,,2013-05-16 10:45:00,
2013-05-16 06:56:00,55.0,46.0,-100.00,West,275,1.0,5.0,71,-99.99,,,-99.99,,2013-05-16 10:56:00,
2013-05-16 07:05:00,54.0,46.0,-100.00,WNW,285,1.0,5.0,73,-99.99,,,-99.99,,2013-05-16 11:05:00,
2013-05-16 07:15:00,55.0,46.0,-100.00,NW,310,2.0,5.0,72,-99.99,,,-99.99,,2013-05-16 11:15:00,
2013-05-16 07:25:00,56.0,47.0,-100.00,West,275,2.0,6.0,71,-99.99,,,-99.99,,2013-05-16 11:25:00,
2013-05-16 07:35:00,54.0,47.0,-100.00,West,270,2.0,3.0,76,-99.99,,,-99.99,,2013-05-16 11:35:00,
2013-05-16 07:46:00,54.0,48.0,-100.00,West,280,1.0,5.0,78,-99.99,,,-99.99,,2013-05-16 11:46:00,
2013-05-16 07:56:00,56.0,48.0,-100.00,WNW,290,1.0,5.0,76,-99.99,,,-99.99,,2013-05-16 11:56:00,
2013-05-16 08:06:00,58.0,49.0,-100.00,WNW,285,1.0,2.0,72,-99.99,,,-99.99,,2013-05-16 12:06:00,
2013-05-16 08:13:00,59.0,50.0,-100.00,West,265,1.0,2.0,71,-99.99,,,-99.99,,2013-05-16 12:13:00,
2013-05-16 08:23:00,61.0,50.0,-100.00,North,10,1.0,5.0,66,-99.99,,,-99.99,,2013-05-16 12:23:00,
2013-05-16 08:35:00,63.0,48.0,-100.00,East,85,2.0,5.0,59,-99.99,,,-99.99,,2013-05-16 12:35:00,
2013-05-16 08:45:00,65.0,47.0,-100.00,WSW,245,1.0,7.0,52,-99.99,,,-99.99,,2013-05-16 12:45:00,
2013-05-16 08:53:00,66.0,45.0,-100.00,NE,45,2.0,10.0,48,-99.99,,,-99.99,,2013-05-16 12:53:00,
2013-05-16 09:04:00,66.0,45.0,-100.00,East,80,2.0,6.0,46,-99.99,,,-99.99,,2013-05-16 13:04:00,
2013-05-16 09:12:00,66.0,44.0,-100.00,East,90,5.0,9.0,45,-99.99,,,-99.99,,2013-05-16 13:12:00,
2013-05-16 09:27:00,67.0,45.0,-100.00,NE,45,2.0,9.0,45,-99.99,,,-99.99,,2013-05-16 13:27:00,
2013-05-16 09:35:00,68.0,45.0,-100.00,NE,55,6.0,12.0,43,-99.99,,,-99.99,,2013-05-16 13:35:00,
2013-05-16 09:43:00,68.0,43.0,-100.00,ENE,70,2.0,10.0,41,-99.99,,,-99.99,,2013-05-16 13:43:00,
2013-05-16 09:55:00,68.0,43.0,-100.00,ENE,70,2.0,10.0,41,-99.99,,,-99.99,,2013-05-16 13:55:00,
2013-05-16 10:05:00,70.0,44.0,-100.00,WNW,288,3.0,12.0,39,-99.99,,,-99.99,,2013-05-16 14:05:00,
2013-05-16 10:16:00,70.0,44.0,-100.00,NNW,340,2.0,12.0,39,-99.99,,,-99.99,,2013-05-16 14:16:00,
2013-05-16 10:23:00,70.0,44.0,-100.00,NNW,335,5.0,12.0,38,-99.99,,,-99.99,,2013-05-16 14:23:00,
2013-05-16 10:37:00,70.0,44.0,-100.00,ENE,70,6.0,14.0,39,-99.99,,,-99.99,,2013-05-16 14:37:00,
2013-05-16 10:40:00,73.0,42.0,-100.00,NE,55,6.0,17.0,32,-99.99,,,-99.99,,2013-05-16 14:40:00,
2013-05-16 10:47:00,71.0,44.0,-100.00,ENE,60,3.0,14.0,38,-99.99,,,-99.99,,2013-05-16 14:47:00,
2013-05-16 10:56:00,71.0,44.0,-100.00,ENE,60,3.0,14.0,38,-99.99,,,-99.99,,2013-05-16 14:56:00,
2013-05-16 11:08:00,73.0,40.0,-100.00,NE,35,5.0,17.0,31,-99.99,,,-99.99,,2013-05-16 15:08:00,
2013-05-16 11:17:00,74.0,41.0,-100.00,ESE,105,5.0,14.0,31,-99.99,,,-99.99,,2013-05-16 15:17:00,
2013-05-16 11:28:00,73.0,42.0,-100.00,NE,55,6.0,17.0,32,-99.99,,,-99.99,,2013-05-16 15:28:00,
2013-05-16 11:30:00,76.0,38.0,-100.00,NE,50,3.0,16.0,25,-99.99,,,-99.99,,2013-05-16 15:30:00,
2013-05-16 12:01:00,74.0,40.0,-100.00,East,95,5.0,13.0,30,-99.99,,,-99.99,,2013-05-16 16:01:00,
2013-05-16 12:09:00,74.0,40.0,-100.00,East,95,5.0,13.0,30,-99.99,,,-99.99,,2013-05-16 16:09:00,
2013-05-16 12:20:00,76.0,38.0,-100.00,NE,50,3.0,16.0,25,-99.99,,,-99.99,,2013-05-16 16:20:00,
2013-05-16 12:40:00,77.0,-99.9,-100.00,East,85,7.0,18.0,23,-99.99,,,-99.99,,2013-05-16 16:40:00,
2013-05-16 12:51:00,79.0,38.0,-100.00,East,90,7.0,15.0,23,-99.99,,,-99.99,,2013-05-16 16:51:00,
2013-05-16 13:00:00,78.0,37.0,-100.00,NNE,15,8.0,27.0,23,-99.99,,,-99.99,,2013-05-16 17:00:00,
2013-05-16 13:11:00,77.0,37.0,-100.00,ENE,75,8.0,20.0,23,-99.99,,,-99.99,,2013-05-16 17:11:00,
2013-05-16 13:20:00,79.0,37.0,-100.00,ENE,65,9.0,21.0,22,-99.99,,,-99.99,,2013-05-16 17:20:00,
2013-05-16 13:31:00,78.0,35.0,-100.00,ENE,70,7.0,18.0,21,-99.99,,,-99.99,,2013-05-16 17:31:00,
2013-05-16 13:40:00,79.0,36.0,-100.00,NE,45,7.0,14.0,21,-99.99,,,-99.99,,2013-05-16 17:40:00,
2013-05-16 13:50:00,-999.0,-99.9,-100.00,ENE,70,8.0,17.0,21,-99.99,,,-99.99,,2013-05-16 17:50:00,
2013-05-16 14:00:00,79.0,-99.9,-100.00,NNW,330,7.0,18.0,21,-99.99,,,-99.99,,2013-05-16 18:00:00,
2013-05-16 14:10:00,80.0,35.0,-100.00,NE,45,7.0,17.0,20,-99.99,,,-99.99,,2013-05-16 18:10:00,
2013-05-16 14:20:00,80.0,35.0,-100.00,East,85,6.0,17.0,20,-99.99,,,-99.99,,2013-05-16 18:20:00,
2013-05-16 14:30:00,-999.0,-99.9,-100.00,NE,45,6.0,23.0,21,-99.99,,,-99.99,,2013-05-16 18:30:00,
2013-05-16 14:40:00,-999.0,-99.9,-100.00,NE,40,8.0,22.0,21,-99.99,,,-99.99,,2013-05-16 18:40:00,
2013-05-16 14:50:00,-999.0,-99.9,-100.00,NNE,25,7.0,23.0,21,-99.99,,,-99.99,,2013-05-16 18:50:00,
2013-05-16 15:00:00,-999.0,-99.9,-100.00,ESE,110,7.0,21.0,21,-99.99,,,-99.99,,2013-05-16 19:00:00,
2013-05-16 15:11:00,81.0,-99.9,-100.00,North,0,7.0,17.0,19,-99.99,,,-99.99,,2013-05-16 19:11:00,
2013-05-16 15:20:00,80.0,35.0,-100.00,NNE,25,10.0,23.0,20,-99.99,,,-99.99,,2013-05-16 19:20:00,
2013-05-16 15:30:00,80.0,36.0,-100.00,NE,35,7.0,23.0,21,-99.99,,,-99.99,,2013-05-16 19:30:00,
2013-05-16 15:40:00,80.0,-99.9,-100.00,NE,55,7.0,20.0,21,-99.99,,,-99.99,,2013-05-16 19:40:00,
2013-05-16 15:51:00,-999.0,-99.9,-100.00,ENE,65,8.0,20.0,20,-99.99,,,-99.99,,2013-05-16 19:51:00,
2013-05-16 16:00:00,81.0,-99.9,-100.00,North,0,6.0,17.0,22,-99.99,,,-99.99,,2013-05-16 20:00:00,
2013-05-16 16:10:00,-999.0,-99.9,-100.00,NE,50,5.0,22.0,23,-99.99,,,-99.99,,2013-05-16 20:10:00,
2013-05-16 16:30:00,81.0,-99.9,-100.00,NE,45,7.0,20.0,21,-99.99,,,-99.99,,2013-05-16 20:30:00,
2013-05-16 16:41:00,-999.0,-99.9,-100.00,NE,50,9.0,23.0,21,-99.99,,,-99.99,,2013-05-16 20:41:00,
2013-05-16 16:51:00,81.0,38.0,-100.00,NNW,340,6.0,20.0,21,-99.99,,,-99.99,,2013-05-16 20:51:00,
2013-05-16 17:00:00,81.0,37.0,-100.00,ENE,70,8.0,17.0,21,-99.99,,,-99.99,,2013-05-16 21:00:00,
2013-05-16 17:10:00,-999.0,-99.9,-100.00,NNW,340,7.0,18.0,21,-99.99,,,-99.99,,2013-05-16 21:10:00,
2013-05-16 17:20:00,82.0,-99.9,-100.00,East,80,7.0,23.0,21,-99.99,,,-99.99,,2013-05-16 21:20:00,
2013-05-16 17:29:00,81.0,37.0,-100.00,ENE,75,3.0,21.0,21,-99.99,,,-99.99,,2013-05-16 21:29:00,
2013-05-16 17:38:00,81.0,39.0,-100.00,ENE,60,7.0,18.0,22,-99.99,,,-99.99,,2013-05-16 21:38:00,
2013-05-16 17:50:00,81.0,-99.9,-100.00,North,0,5.0,21.0,22,-99.99,,,-99.99,,2013-05-16 21:50:00,
2013-05-16 18:00:00,-999.0,-99.9,-100.00,East,90,5.0,15.0,21,-99.99,,,-99.99,,2013-05-16 22:00:00,
2013-05-16 18:08:00,81.0,36.0,-100.00,ENE,75,9.0,23.0,20,-99.99,,,-99.99,,2013-05-16 22:08:00,
2013-05-16 18:21:00,81.0,37.0,-100.00,East,80,8.0,21.0,21,-99.99,,,-99.99,,2013-05-16 22:21:00,
2013-05-16 18:31:00,81.0,37.0,-100.00,NE,50,6.0,20.0,21,-99.99,,,-99.99,,2013-05-16 22:31:00,
2013-05-16 18:40:00,81.0,37.0,-100.00,ENE,70,9.0,24.0,21,-99.99,,,-99.99,,2013-05-16 22:40:00,
2013-05-16 18:51:00,80.0,37.0,-100.00,ENE,70,6.0,21.0,21,-99.99,,,-99.99,,2013-05-16 22:51:00,
2013-05-16 19:00:00,80.0,37.0,-100.00,ENE,75,6.0,21.0,21,-99.99,,,-99.99,,2013-05-16 23:00:00,
2013-05-16 19:07:00,80.0,36.0,-100.00,ENE,70,5.0,13.0,21,-99.99,,,-99.99,,2013-05-16 23:07:00,
2013-05-16 19:16:00,79.0,36.0,-100.00,East,85,8.0,14.0,21,-99.99,,,-99.99,,2013-05-16 23:16:00,
2013-05-16 19:24:00,80.0,35.0,-100.00,NE,55,7.0,20.0,20,-99.99,,,-99.99,,2013-05-16 23:24:00,
2013-05-16 19:35:00,79.0,36.0,-100.00,ENE,75,2.0,20.0,21,-99.99,,,-99.99,,2013-05-16 23:35:00,
2013-05-16 19:45:00,79.0,37.0,-100.00,NE,35,2.0,17.0,22,-99.99,,,-99.99,,2013-05-16 23:45:00,
2013-05-16 19:54:00,78.0,36.0,-100.00,ENE,60,5.0,13.0,22,-99.99,,,-99.99,,2013-05-16 23:54:00,
2013-05-16 20:03:00,78.0,36.0,-100.00,NE,55,5.0,14.0,22,-99.99,,,-99.99,,2013-05-17 00:03:00,
2013-05-16 20:13:00,78.0,36.0,-100.00,ESE,105,5.0,13.0,22,-99.99,,,-99.99,,2013-05-17 00:13:00,
2013-05-16 20:22:00,76.0,37.0,-100.00,ENE,75,2.0,7.0,24,-99.99,,,-99.99,,2013-05-17 00:22:00,
2013-05-16 20:43:00,74.0,37.0,-100.00,NE,50,3.0,7.0,26,-99.99,,,-99.99,,2013-05-17 00:43:00,
2013-05-16 20:53:00,73.0,38.0,-100.00,ENE,60,1.0,7.0,28,-99.99,,,-99.99,,2013-05-17 00:53:00,
2013-05-16 21:03:00,71.0,39.0,-100.00,West,275,1.0,5.0,31,-99.99,,,-99.99,,2013-05-17 01:03:00,
2013-05-16 21:12:00,70.0,39.0,-100.00,WNW,300,1.0,2.0,33,-99.99,,,-99.99,,2013-05-17 01:12:00,
2013-05-16 21:23:00,69.0,40.0,-100.00,SW,225,1.0,3.0,35,-99.99,,,-99.99,,2013-05-17 01:23:00,
2013-05-16 21:32:00,68.0,41.0,-100.00,NE,45,1.0,3.0,37,-99.99,,,-99.99,,2013-05-17 01:32:00,
2013-05-16 21:43:00,68.0,40.0,-100.00,NE,50,2.0,7.0,36,-99.99,,,-99.99,,2013-05-17 01:43:00,
2013-05-16 21:52:00,70.0,39.0,-100.00,ENE,70,3.0,7.0,33,-99.99,,,-99.99,,2013-05-17 01:52:00,
2013-05-16 22:02:00,71.0,38.0,-100.00,East,95,2.0,10.0,30,-99.99,,,-99.99,,2013-05-17 02:02:00,
2013-05-16 22:11:00,71.0,38.0,-100.00,NE,45,1.0,8.0,30,-99.99,,,-99.99,,2013-05-17 02:11:00,
2013-05-16 22:22:00,70.0,37.0,-100.00,NE,50,1.0,7.0,29,-99.99,,,-99.99,,2013-05-17 02:22:00,
2013-05-16 22:33:00,70.0,35.0,-100.00,East,85,1.0,8.0,28,-99.99,,,-99.99,,2013-05-17 02:33:00,
2013-05-16 22:42:00,68.0,36.0,-100.00,South,180,0.0,2.0,31,-99.99,,,-99.99,,2013-05-17 02:42:00,
2013-05-16 22:53:00,68.0,35.0,-100.00,NE,45,2.0,13.0,29,-99.99,,,-99.99,,2013-05-17 02:53:00,
2013-05-16 23:02:00,68.0,33.0,-100.00,NE,35,3.0,8.0,28,-99.99,,,-99.99,,2013-05-17 03:02:00,
2013-05-16 23:11:00,68.0,33.0,-100.00,East,85,2.0,6.0,27,-99.99,,,-99.99,,2013-05-17 03:11:00,
2013-05-16 23:23:00,67.0,34.0,-100.00,WNW,285,1.0,5.0,29,-99.99,,,-99.99,,2013-05-17 03:23:00,
2013-05-16 23:34:00,66.0,34.0,-100.00,NNW,330,1.0,3.0,30,-99.99,,,-99.99,,2013-05-17 03:34:00,
2013-05-16 23:43:00,65.0,34.0,-100.00,North,0,1.0,3.0,32,-99.99,,,-99.99,,2013-05-17 03:43:00,
2013-05-16 23:53:00,64.0,34.0,-100.00,West,265,1.0,5.0,33,-99.99,,,-99.99,,2013-05-17 03:53:00,